Time;durP1;ratioP1;P1;durP2;ratioP2;P2;SDS_P1;SDS_P2;PMS_P1;PMS_P2;Temp;Humidity;BMP_temperature;BMP_pressure;BME280_temperature;BME280_humidity;BME280_pressure;Samples;Min_cycle;Max_cycle;Signal;HPM_P1;HPM_P2
2021/09/30 00:00:08;;;;;;;5.57;1.50;;;11.10;99.90;;;;;;5107216;27;20894;-70
2021/09/30 00:02:37;;;;;;;4.37;1.20;;;11.20;99.90;;;;;;5085427;28;20237;-70
2021/09/30 00:05:08;;;;;;;5.63;1.40;;;11.10;99.90;;;;;;5089741;28;20238;-70
2021/09/30 00:07:36;;;;;;;7.90;1.53;;;11.10;99.90;;;;;;5088140;28;20282;-70
2021/09/30 00:10:06;;;;;;;4.77;1.60;;;11.10;99.90;;;;;;5098796;28;20238;-70
2021/09/30 00:12:39;;;;;;;5.33;1.27;;;11.20;99.90;;;;;;5085332;28;20278;-69
2021/09/30 00:15:11;;;;;;;5.47;1.63;;;11.20;99.90;;;;;;5092864;28;20980;-70
2021/09/30 00:17:54;;;;;;;4.50;1.97;;;11.20;99.90;;;;;;5085255;28;20312;-69
2021/09/30 00:34:17;;;;;;;8.37;1.87;;;11.10;99.90;;;;;;5108196;27;20234;-69
2021/09/30 00:42:37;;;;;;;6.37;1.50;;;11.10;99.90;;;;;;5106767;27;20242;-70
2021/09/30 00:45:28;;;;;;;6.37;1.40;;;11.10;99.90;;;;;;5107010;27;20320;-70
2021/09/30 00:48:02;;;;;;;6.50;1.60;;;11.20;99.90;;;;;;5107252;27;20355;-69
2021/09/30 00:50:37;;;;;;;8.67;1.83;;;11.20;99.90;;;;;;5106322;27;20781;-70
2021/09/30 00:53:34;;;;;;;5.47;1.70;;;11.20;99.90;;;;;;5109970;27;20324;-69
2021/09/30 02:58:48;;;;;;;4.03;1.13;;;10.70;99.90;;;;;;5047774;28;20882;-69
2021/09/30 03:01:19;;;;;;;4.77;1.30;;;10.80;99.90;;;;;;5044926;28;20298;-69
2021/09/30 03:03:56;;;;;;;4.83;1.40;;;10.80;99.90;;;;;;5049019;28;20248;-69
2021/09/30 03:06:26;;;;;;;7.40;0.90;;;10.80;99.90;;;;;;5067583;28;20636;-70
2021/09/30 03:08:58;;;;;;;6.10;1.23;;;10.70;99.90;;;;;;5076238;28;20755;-69
2021/09/30 03:11:27;;;;;;;6.40;1.03;;;10.70;99.90;;;;;;5076943;28;20288;-69
2021/09/30 03:13:57;;;;;;;4.00;1.17;;;10.70;99.90;;;;;;5075698;28;20231;-70
2021/09/30 03:16:30;;;;;;;5.93;1.20;;;10.70;99.90;;;;;;5081077;28;20281;-70
2021/09/30 03:19:18;;;;;;;5.63;1.00;;;10.70;99.90;;;;;;5081002;28;20246;-70
2021/09/30 03:22:14;;;;;;;7.00;1.10;;;10.70;99.90;;;;;;5071370;28;20342;-69
2021/09/30 03:24:45;;;;;;;5.83;1.13;;;10.70;99.90;;;;;;5068853;28;20684;-69
2021/09/30 03:27:13;;;;;;;5.27;1.17;;;10.60;99.90;;;;;;5070109;28;20242;-69
2021/09/30 03:29:42;;;;;;;6.80;1.07;;;10.60;99.90;;;;;;5076289;28;20290;-69
2021/09/30 03:32:11;;;;;;;6.43;1.30;;;10.60;99.90;;;;;;5069819;28;20323;-70
2021/09/30 03:35:08;;;;;;;7.23;1.27;;;10.60;99.90;;;;;;5066794;28;20247;-69
2021/09/30 03:37:38;;;;;;;4.40;1.10;;;10.60;99.90;;;;;;5079269;28;20238;-69
2021/09/30 03:40:08;;;;;;;4.93;0.93;;;10.60;99.90;;;;;;5066711;28;20241;-69
2021/09/30 03:42:37;;;;;;;3.27;1.07;;;10.60;99.90;;;;;;5058093;28;20242;-69
2021/09/30 03:45:09;;;;;;;6.40;1.33;;;10.60;99.90;;;;;;5054592;28;20243;-70
2021/09/30 03:47:44;;;;;;;4.57;1.13;;;10.50;99.90;;;;;;5066634;28;20234;-70
2021/09/30 03:50:20;;;;;;;6.10;1.63;;;10.60;99.90;;;;;;5063375;28;20951;-69
2021/09/30 03:52:59;;;;;;;5.13;1.13;;;10.60;99.90;;;;;;5065895;28;20248;-70
2021/09/30 03:55:42;;;;;;;3.87;1.27;;;10.50;99.90;;;;;;5059917;28;20632;-70
2021/09/30 04:00:57;;;;;;;4.37;1.17;;;10.50;99.90;;;;;;5053240;28;20322;-70
2021/09/30 04:03:26;;;;;;;5.27;1.07;;;10.60;99.90;;;;;;5060359;28;20595;-69
2021/09/30 04:05:56;;;;;;;3.60;1.00;;;10.60;99.90;;;;;;5064353;28;20243;-70
2021/09/30 04:08:24;;;;;;;5.83;1.53;;;10.60;99.90;;;;;;5061088;28;20708;-70
2021/09/30 04:10:52;;;;;;;7.00;1.20;;;10.60;99.90;;;;;;5066030;28;20719;-70
2021/09/30 04:13:21;;;;;;;7.47;1.20;;;10.60;99.90;;;;;;5052772;28;20598;-70
2021/09/30 04:15:50;;;;;;;7.77;1.30;;;10.60;99.90;;;;;;5059096;28;20239;-69
2021/09/30 04:18:19;;;;;;;3.83;1.10;;;10.60;99.90;;;;;;5056897;28;20711;-69
2021/09/30 04:20:50;;;;;;;4.93;1.70;;;10.60;99.90;;;;;;5054558;28;20265;-70
2021/09/30 04:23:20;;;;;;;6.70;1.60;;;10.60;99.90;;;;;;5055580;28;20275;-70
2021/09/30 04:25:49;;;;;;;5.13;1.23;;;10.60;99.90;;;;;;5055269;28;20236;-70
2021/09/30 04:28:19;;;;;;;6.03;1.60;;;10.60;99.90;;;;;;5062635;28;20607;-70
2021/09/30 04:30:52;;;;;;;7.20;1.37;;;10.60;99.90;;;;;;5062653;28;20235;-70
2021/09/30 04:33:26;;;;;;;5.57;1.60;;;10.50;99.90;;;;;;5059210;28;20224;-70
2021/09/30 04:35:56;;;;;;;5.77;1.27;;;10.50;99.90;;;;;;5062302;28;20646;-70
2021/09/30 04:38:28;;;;;;;8.93;1.80;;;10.50;99.90;;;;;;5064955;28;20223;-70
2021/09/30 04:40:56;;;;;;;5.90;1.40;;;10.50;99.90;;;;;;5049453;28;20283;-70
2021/09/30 04:43:25;;;;;;;8.87;1.70;;;10.40;99.90;;;;;;5060856;28;20734;-69
2021/09/30 04:45:53;;;;;;;8.13;1.57;;;10.40;99.90;;;;;;5057689;28;20248;-70
2021/09/30 04:48:21;;;;;;;9.67;1.60;;;10.40;99.90;;;;;;5055883;28;20264;-70
2021/09/30 04:51:09;;;;;;;7.40;1.40;;;10.40;99.90;;;;;;5054444;28;20482;-69
2021/09/30 04:53:39;;;;;;;9.50;1.80;;;10.40;99.90;;;;;;5061830;28;20700;-69
2021/09/30 04:56:08;;;;;;;6.97;1.40;;;10.40;99.90;;;;;;5060257;28;20704;-69
2021/09/30 04:58:42;;;;;;;7.37;1.90;;;10.40;99.90;;;;;;5057889;28;20644;-70
2021/09/30 05:01:11;;;;;;;8.40;1.60;;;10.40;99.90;;;;;;5064554;28;20817;-70
2021/09/30 05:03:47;;;;;;;6.30;1.30;;;10.30;99.90;;;;;;5055477;28;20643;-70
2021/09/30 05:06:17;;;;;;;7.13;1.20;;;10.40;99.90;;;;;;5059246;28;20262;-69
2021/09/30 05:08:49;;;;;;;6.63;1.30;;;10.40;99.90;;;;;;5057067;28;20236;-69
2021/09/30 05:11:17;;;;;;;5.47;1.57;;;10.40;99.90;;;;;;5062494;28;20240;-69
2021/09/30 05:13:46;;;;;;;6.10;1.30;;;10.40;99.90;;;;;;5052742;28;20307;-69
2021/09/30 05:16:17;;;;;;;4.40;1.20;;;10.40;99.90;;;;;;5064903;28;20734;-71
2021/09/30 05:19:04;;;;;;;4.63;1.57;;;10.40;99.90;;;;;;5059189;28;20385;-71
2021/09/30 05:21:33;;;;;;;4.57;1.10;;;10.40;99.90;;;;;;5056567;28;20742;-71
2021/09/30 05:24:03;;;;;;;4.50;1.20;;;10.40;99.90;;;;;;5060448;28;20236;-71
2021/09/30 05:26:31;;;;;;;7.13;1.43;;;10.40;99.90;;;;;;5063659;28;20234;-69
2021/09/30 05:29:01;;;;;;;5.27;1.20;;;10.40;99.90;;;;;;5064659;28;20259;-70
2021/09/30 05:31:34;;;;;;;8.77;1.13;;;10.40;99.90;;;;;;5057243;28;20716;-69
2021/09/30 05:34:21;;;;;;;4.20;0.90;;;10.40;99.90;;;;;;5061017;28;20712;-69
2021/09/30 05:36:50;;;;;;;7.47;1.70;;;10.40;99.90;;;;;;5054612;28;20704;-69
2021/09/30 05:39:20;;;;;;;6.63;1.13;;;10.40;99.90;;;;;;5056106;28;20251;-70
2021/09/30 05:41:49;;;;;;;4.10;1.30;;;10.40;99.90;;;;;;5059192;28;20783;-69
2021/09/30 05:44:22;;;;;;;6.13;1.10;;;10.40;99.90;;;;;;5064292;28;20264;-70
2021/09/30 05:46:53;;;;;;;3.77;1.23;;;10.30;99.90;;;;;;5060129;28;20607;-69
2021/09/30 05:49:23;;;;;;;5.77;1.03;;;10.30;99.90;;;;;;5053754;28;20246;-70
2021/09/30 05:52:09;;;;;;;4.20;1.00;;;10.40;99.90;;;;;;5060217;28;20796;-70
2021/09/30 05:54:47;;;;;;;4.63;1.30;;;10.30;99.90;;;;;;5062573;28;20492;-70
2021/09/30 05:57:20;;;;;;;3.10;0.90;;;10.40;99.90;;;;;;5054188;28;20265;-70
2021/09/30 05:59:49;;;;;;;3.43;0.90;;;10.40;99.90;;;;;;5062537;28;20708;-70
2021/09/30 06:10:59;;;;;;;5.70;1.43;;;10.30;99.90;;;;;;5035638;28;20651;-69
2021/09/30 06:13:31;;;;;;;3.27;0.93;;;10.30;99.90;;;;;;5050897;28;20642;-70
2021/09/30 06:16:06;;;;;;;7.17;1.10;;;10.40;99.90;;;;;;5055094;28;20235;-70
2021/09/30 06:18:35;;;;;;;4.33;0.90;;;10.40;99.90;;;;;;5047599;28;20261;-70
2021/09/30 06:21:04;;;;;;;5.27;1.20;;;10.40;99.90;;;;;;5058515;28;20286;-69
2021/09/30 06:23:32;;;;;;;6.03;1.17;;;10.40;99.90;;;;;;5057325;28;20246;-71
2021/09/30 06:26:02;;;;;;;5.03;1.10;;;10.40;99.90;;;;;;5051007;28;20839;-69
2021/09/30 06:28:34;;;;;;;3.40;0.97;;;10.50;99.90;;;;;;5047273;28;20243;-70
2021/09/30 06:31:06;;;;;;;7.33;1.17;;;10.60;99.90;;;;;;5057362;28;20800;-71
2021/09/30 06:34:10;;;;;;;3.23;1.10;;;10.60;99.90;;;;;;5031280;28;20267;-70
2021/09/30 06:36:56;;;;;;;7.27;1.00;;;10.70;99.90;;;;;;5057881;28;20227;-70
2021/09/30 06:39:26;;;;;;;5.67;1.13;;;10.70;99.90;;;;;;5058813;28;20232;-70
2021/09/30 06:41:55;;;;;;;5.97;1.13;;;10.80;99.90;;;;;;5054006;28;20316;-70
2021/09/30 06:44:48;;;;;;;4.87;0.93;;;10.90;99.90;;;;;;5052725;28;20232;-70
2021/09/30 06:47:29;;;;;;;6.03;1.50;;;11.10;99.90;;;;;;5063627;28;20715;-70
2021/09/30 06:50:10;;;;;;;7.20;1.30;;;11.10;99.90;;;;;;5060376;28;20692;-70
2021/09/30 06:53:01;;;;;;;5.87;1.00;;;11.20;99.90;;;;;;5060971;28;20718;-71
2021/09/30 06:56:09;;;;;;;5.90;1.30;;;11.30;99.90;;;;;;5042501;28;20321;-71
2021/09/30 06:59:20;;;;;;;5.50;1.07;;;11.30;99.90;;;;;;5031230;28;20249;-70
2021/09/30 07:01:48;;;;;;;5.00;1.40;;;11.20;99.90;;;;;;5048932;28;20232;-71
2021/09/30 07:04:36;;;;;;;3.23;0.90;;;11.10;99.90;;;;;;5052537;28;20243;-70
2021/09/30 07:07:22;;;;;;;4.07;1.20;;;11.30;99.90;;;;;;5053602;28;20236;-71
2021/09/30 07:09:50;;;;;;;2.07;0.90;;;11.50;99.90;;;;;;5056216;28;20231;-70
2021/09/30 07:12:18;;;;;;;6.37;1.30;;;11.70;99.90;;;;;;5051743;28;20237;-70
2021/09/30 07:14:48;;;;;;;4.73;1.17;;;11.90;99.90;;;;;;5053716;28;20670;-71
2021/09/30 07:17:16;;;;;;;5.37;1.33;;;11.80;99.90;;;;;;5058309;28;20634;-71
2021/09/30 07:19:44;;;;;;;3.60;1.17;;;11.70;99.90;;;;;;5061539;28;20234;-71
2021/09/30 07:22:12;;;;;;;3.80;0.90;;;11.60;99.90;;;;;;5062425;28;20250;-70
2021/09/30 07:24:40;;;;;;;3.97;0.90;;;11.50;99.90;;;;;;5063095;28;20587;-71
2021/09/30 07:27:10;;;;;;;6.23;1.07;;;11.50;99.90;;;;;;5053601;28;20644;-70
2021/09/30 07:29:39;;;;;;;3.50;0.97;;;11.80;99.90;;;;;;5060454;28;20599;-70
2021/09/30 07:32:09;;;;;;;5.43;1.20;;;12.00;99.90;;;;;;5058253;28;20249;-70
2021/09/30 07:34:39;;;;;;;6.53;1.30;;;12.10;99.90;;;;;;5061068;28;20332;-71
2021/09/30 07:37:07;;;;;;;4.10;1.23;;;12.20;99.90;;;;;;5064863;28;20256;-70
2021/09/30 07:39:36;;;;;;;5.17;1.20;;;12.10;99.90;;;;;;5065427;28;20851;-70
2021/09/30 07:42:04;;;;;;;5.03;1.00;;;12.10;99.90;;;;;;5058351;28;20260;-70
2021/09/30 07:44:33;;;;;;;4.73;1.00;;;12.10;99.90;;;;;;5053656;28;20236;-70
2021/09/30 07:47:02;;;;;;;6.00;1.17;;;12.40;99.90;;;;;;5065282;28;20273;-70
2021/09/30 07:49:33;;;;;;;4.20;0.87;;;12.60;99.90;;;;;;5062639;28;20233;-70
2021/09/30 07:52:02;;;;;;;5.10;1.10;;;12.70;99.90;;;;;;5058975;28;20263;-70
2021/09/30 07:54:30;;;;;;;6.50;1.63;;;12.90;99.90;;;;;;5061252;28;20234;-71
2021/09/30 07:56:58;;;;;;;5.27;1.23;;;13.20;99.90;;;;;;5059392;28;20283;-71
2021/09/30 07:59:27;;;;;;;4.33;1.20;;;13.10;99.90;;;;;;5059787;28;20242;-70
2021/09/30 08:01:56;;;;;;;5.43;1.00;;;13.10;99.90;;;;;;5056913;28;20245;-71
2021/09/30 08:04:24;;;;;;;4.37;1.07;;;13.20;99.90;;;;;;5055537;28;20575;-70
2021/09/30 08:06:54;;;;;;;5.10;1.10;;;13.50;99.90;;;;;;5059930;28;20629;-71
2021/09/30 08:09:22;;;;;;;4.40;1.13;;;13.60;99.90;;;;;;5059480;28;20234;-70
2021/09/30 08:11:53;;;;;;;2.90;0.97;;;14.00;99.90;;;;;;5055595;28;20730;-71
2021/09/30 08:14:21;;;;;;;4.53;1.23;;;14.00;99.90;;;;;;5050895;28;20251;-71
2021/09/30 08:16:49;;;;;;;7.60;1.53;;;13.80;99.90;;;;;;5054224;28;20550;-71
2021/09/30 08:19:18;;;;;;;6.77;1.17;;;13.60;99.90;;;;;;5058758;28;20347;-70
2021/09/30 08:21:46;;;;;;;6.60;1.10;;;13.60;99.90;;;;;;5053990;28;20239;-71
2021/09/30 08:24:17;;;;;;;3.47;1.10;;;13.90;99.90;;;;;;5058805;28;20307;-70
2021/09/30 08:26:46;;;;;;;6.40;1.30;;;14.00;99.90;;;;;;5053595;28;20291;-71
2021/09/30 08:29:17;;;;;;;6.30;1.33;;;14.30;99.90;;;;;;5058728;28;20231;-71
2021/09/30 08:31:45;;;;;;;3.47;0.93;;;14.60;99.90;;;;;;5058537;28;20241;-70
2021/09/30 08:34:14;;;;;;;4.07;1.20;;;14.70;99.90;;;;;;5056253;28;20276;-70
2021/09/30 08:36:42;;;;;;;2.70;1.10;;;14.80;99.90;;;;;;5057351;28;20306;-70
2021/09/30 08:39:10;;;;;;;3.57;1.13;;;15.10;99.90;;;;;;5056044;28;20226;-71
2021/09/30 08:41:40;;;;;;;3.70;0.93;;;15.40;99.90;;;;;;5057283;28;20329;-71
2021/09/30 08:44:08;;;;;;;7.33;1.20;;;15.00;99.90;;;;;;5055763;28;20299;-72
2021/09/30 08:46:37;;;;;;;5.13;1.40;;;14.70;99.90;;;;;;5059284;28;20246;-71
2021/09/30 08:49:06;;;;;;;3.27;1.00;;;14.40;99.90;;;;;;5058169;28;20326;-71
2021/09/30 08:51:36;;;;;;;5.53;1.47;;;14.40;99.90;;;;;;5058050;28;20231;-70
2021/09/30 08:54:05;;;;;;;5.13;1.30;;;14.70;99.90;;;;;;5062449;28;20238;-71
2021/09/30 08:56:34;;;;;;;2.63;1.20;;;14.80;99.90;;;;;;5055817;28;20875;-71
2021/09/30 08:59:17;;;;;;;6.63;1.40;;;15.10;99.90;;;;;;5055467;28;20274;-70
2021/09/30 09:01:47;;;;;;;4.20;1.40;;;15.50;99.90;;;;;;5059103;28;20237;-70
2021/09/30 09:04:20;;;;;;;4.90;1.70;;;15.50;99.90;;;;;;5057084;28;20234;-70
2021/09/30 09:06:49;;;;;;;5.87;1.80;;;15.40;99.90;;;;;;5063202;28;20359;-71
2021/09/30 09:09:22;;;;;;;4.67;1.50;;;15.10;99.90;;;;;;5056220;28;20242;-71
2021/09/30 09:11:52;;;;;;;5.30;1.67;;;14.90;99.90;;;;;;5066922;28;20246;-71
2021/09/30 09:14:27;;;;;;;6.70;1.60;;;14.50;99.90;;;;;;5056708;28;20231;-71
2021/09/30 09:17:00;;;;;;;7.27;2.10;;;14.10;99.90;;;;;;5058436;28;20477;-71
2021/09/30 09:19:37;;;;;;;5.60;1.70;;;14.00;99.90;;;;;;5060075;28;20235;-71
2021/09/30 09:22:10;;;;;;;5.77;1.70;;;13.90;99.90;;;;;;5055282;28;20245;-71
2021/09/30 09:25:00;;;;;;;7.73;2.07;;;14.00;99.90;;;;;;5060583;28;20333;-70
2021/09/30 09:27:45;;;;;;;5.13;1.70;;;14.50;99.90;;;;;;5054859;28;20231;-71
2021/09/30 09:30:34;;;;;;;5.37;1.60;;;15.20;99.90;;;;;;5056638;28;20235;-71
2021/09/30 09:33:14;;;;;;;7.73;1.87;;;15.50;99.90;;;;;;5053684;28;20304;-71
2021/09/30 09:35:49;;;;;;;9.40;2.30;;;15.80;99.90;;;;;;5053982;28;20238;-71
2021/09/30 09:38:18;;;;;;;6.30;1.77;;;16.00;99.90;;;;;;5053863;28;21226;-72
2021/09/30 09:40:46;;;;;;;7.90;1.80;;;15.90;99.90;;;;;;5052812;28;20552;-72
2021/09/30 09:43:40;;;;;;;7.77;2.13;;;15.70;99.90;;;;;;5060831;28;20841;-71
2021/09/30 09:46:13;;;;;;;9.03;2.13;;;15.70;99.90;;;;;;5048146;28;20297;-70
2021/09/30 09:48:55;;;;;;;7.70;1.87;;;15.90;99.90;;;;;;5051311;28;20584;-71
2021/09/30 09:51:24;;;;;;;5.63;1.57;;;16.20;99.90;;;;;;5037453;28;20281;-70
2021/09/30 09:53:57;;;;;;;9.00;2.10;;;16.30;99.90;;;;;;5005753;28;20734;-69
2021/09/30 09:56:26;;;;;;;6.30;1.57;;;16.20;99.90;;;;;;977911;28;10002035;-70
2021/09/30 09:58:56;;;;;;;7.63;2.20;;;16.30;99.90;;;;;;5009236;28;20249;-70
2021/09/30 10:01:28;;;;;;;8.67;1.60;;;16.60;99.90;;;;;;5005363;28;20255;-70
2021/09/30 10:04:01;;;;;;;9.27;1.87;;;16.90;99.90;;;;;;5009508;28;20609;-70
2021/09/30 10:06:31;;;;;;;7.30;1.90;;;17.30;99.90;;;;;;5009069;28;20849;-70
2021/09/30 10:09:00;;;;;;;7.07;2.10;;;17.30;99.90;;;;;;5008872;28;20236;-71
2021/09/30 10:11:29;;;;;;;6.40;1.90;;;17.20;99.90;;;;;;5006795;28;20793;-71
2021/09/30 10:13:59;;;;;;;6.30;2.00;;;17.10;99.90;;;;;;5009518;28;20252;-71
2021/09/30 10:16:30;;;;;;;7.23;1.83;;;17.20;99.90;;;;;;5010711;28;20271;-71
2021/09/30 10:19:01;;;;;;;5.40;1.50;;;17.00;99.90;;;;;;5010513;28;20338;-70
2021/09/30 10:21:31;;;;;;;7.27;1.93;;;16.90;99.90;;;;;;5006807;28;20330;-71
2021/09/30 10:24:02;;;;;;;6.67;1.90;;;16.80;99.90;;;;;;5007587;28;20347;-70
2021/09/30 10:26:35;;;;;;;5.90;2.00;;;17.20;99.90;;;;;;5007782;28;20239;-70
2021/09/30 10:29:04;;;;;;;6.57;1.60;;;17.00;99.90;;;;;;5007451;28;20370;-70
2021/09/30 10:31:38;;;;;;;6.37;1.70;;;17.00;99.90;;;;;;5007897;28;20303;-70
2021/09/30 10:34:08;;;;;;;7.70;1.70;;;17.20;99.90;;;;;;5008918;28;20967;-70
2021/09/30 10:36:44;;;;;;;7.27;2.00;;;16.90;99.90;;;;;;5009696;28;20240;-71
2021/09/30 10:39:23;;;;;;;6.23;1.90;;;17.00;99.90;;;;;;5012068;28;20755;-70
2021/09/30 10:41:54;;;;;;;8.17;1.70;;;16.90;99.90;;;;;;5015869;28;20286;-71
2021/09/30 10:44:24;;;;;;;9.90;2.23;;;17.00;99.90;;;;;;5015948;28;20241;-71
2021/09/30 10:46:56;;;;;;;6.97;1.80;;;16.80;99.90;;;;;;5022130;28;20303;-71
2021/09/30 10:49:56;;;;;;;9.07;1.80;;;16.70;99.90;;;;;;5021648;28;20298;-71
2021/09/30 10:52:28;;;;;;;8.60;1.83;;;16.80;99.90;;;;;;5020222;28;20889;-70
2021/09/30 10:55:27;;;;;;;6.23;1.53;;;16.70;99.90;;;;;;5021980;28;20596;-70
2021/09/30 10:57:58;;;;;;;5.77;1.50;;;16.40;99.90;;;;;;5023311;28;20243;-71
2021/09/30 11:00:48;;;;;;;5.93;1.67;;;16.40;99.90;;;;;;5026270;28;20294;-70
2021/09/30 11:03:22;;;;;;;6.27;2.00;;;16.20;99.90;;;;;;5011743;28;20865;-71
2021/09/30 11:06:21;;;;;;;6.03;1.67;;;16.30;99.90;;;;;;5025134;28;20232;-71
2021/09/30 11:09:15;;;;;;;6.97;1.77;;;16.30;99.90;;;;;;5013853;28;20232;-71
2021/09/30 11:11:46;;;;;;;7.40;1.67;;;16.80;99.90;;;;;;5023251;28;20799;-70
2021/09/30 11:14:20;;;;;;;6.97;1.53;;;17.30;99.90;;;;;;5026158;28;20614;-70
2021/09/30 11:16:51;;;;;;;6.17;1.77;;;17.20;99.90;;;;;;5020669;28;20236;-70
2021/09/30 11:19:33;;;;;;;7.40;1.50;;;16.90;99.90;;;;;;5025642;28;20535;-71
2021/09/30 11:22:05;;;;;;;7.27;1.50;;;16.60;99.90;;;;;;5025615;28;20243;-71
2021/09/30 11:24:42;;;;;;;4.67;1.83;;;17.00;99.90;;;;;;5018956;28;20789;-71
2021/09/30 11:27:12;;;;;;;4.87;1.77;;;17.30;99.90;;;;;;5019449;28;20247;-70
2021/09/30 11:29:42;;;;;;;7.73;1.70;;;17.60;99.90;;;;;;5026504;28;20244;-70
2021/09/30 11:32:26;;;;;;;8.13;1.50;;;17.70;99.90;;;;;;5016877;28;20280;-71
2021/09/30 11:35:01;;;;;;;8.80;2.00;;;17.60;99.90;;;;;;5024820;28;20771;-70
2021/09/30 11:37:40;;;;;;;6.70;1.90;;;18.00;99.90;;;;;;5023279;28;20236;-71
2021/09/30 11:40:16;;;;;;;6.73;1.90;;;18.00;99.90;;;;;;5019795;28;20895;-71
2021/09/30 11:42:46;;;;;;;6.70;1.90;;;17.90;99.90;;;;;;5019396;28;20289;-70
2021/09/30 11:45:16;;;;;;;10.47;2.03;;;17.90;99.90;;;;;;5021993;28;20331;-70
2021/09/30 11:47:46;;;;;;;7.90;2.17;;;17.80;99.90;;;;;;5022969;28;20240;-71
2021/09/30 11:50:26;;;;;;;4.40;1.70;;;17.70;99.90;;;;;;5025828;28;20730;-70
2021/09/30 11:53:05;;;;;;;12.73;2.10;;;17.80;99.90;;;;;;5018642;28;20244;-72
2021/09/30 11:55:40;;;;;;;6.70;1.77;;;17.70;99.90;;;;;;5017033;28;20239;-71
2021/09/30 11:58:12;;;;;;;7.77;1.83;;;17.70;99.90;;;;;;5023727;28;20561;-72
2021/09/30 12:00:43;;;;;;;5.60;1.97;;;17.80;99.90;;;;;;5025158;28;20327;-71
2021/09/30 12:03:22;;;;;;;7.03;1.90;;;17.90;99.90;;;;;;5022606;28;20233;-71
2021/09/30 12:05:56;;;;;;;6.10;2.00;;;17.80;99.90;;;;;;5021966;28;20299;-71
2021/09/30 12:08:24;;;;;;;5.70;2.07;;;17.50;99.90;;;;;;5025974;28;20604;-71
2021/09/30 12:11:01;;;;;;;8.60;2.17;;;17.40;99.90;;;;;;5024926;28;20230;-71
2021/09/30 12:13:29;;;;;;;12.30;2.10;;;17.30;99.90;;;;;;5022658;28;20240;-71
2021/09/30 12:16:04;;;;;;;7.60;2.10;;;17.40;99.90;;;;;;5019451;28;20263;-71
2021/09/30 12:18:33;;;;;;;6.83;1.90;;;17.40;99.90;;;;;;5021937;28;20241;-71
2021/09/30 12:21:03;;;;;;;10.00;2.00;;;17.30;99.90;;;;;;5025273;28;20708;-71
2021/09/30 12:23:31;;;;;;;9.90;2.17;;;17.20;99.90;;;;;;5022997;28;20280;-71
2021/09/30 12:26:02;;;;;;;8.10;2.10;;;16.80;99.90;;;;;;5020419;28;20231;-71
2021/09/30 12:28:31;;;;;;;7.57;2.00;;;16.70;99.90;;;;;;5014632;28;20242;-71
2021/09/30 12:31:05;;;;;;;11.23;2.43;;;16.60;99.90;;;;;;5022265;28;20647;-70
2021/09/30 12:33:34;;;;;;;6.30;1.90;;;16.60;99.90;;;;;;5012851;28;20252;-70
2021/09/30 12:36:07;;;;;;;7.03;1.93;;;16.80;99.90;;;;;;5023513;28;20990;-70
2021/09/30 12:38:38;;;;;;;5.30;1.70;;;16.60;99.90;;;;;;5013675;28;20327;-70
2021/09/30 12:41:06;;;;;;;5.57;1.80;;;16.60;99.90;;;;;;5024244;28;20249;-70
2021/09/30 12:43:38;;;;;;;8.27;1.80;;;16.80;99.90;;;;;;5024219;28;20244;-71
2021/09/30 12:46:11;;;;;;;6.53;1.90;;;16.80;99.90;;;;;;5023839;28;20247;-70
2021/09/30 12:48:41;;;;;;;5.77;1.77;;;16.90;99.90;;;;;;5018201;28;20240;-71
2021/09/30 12:51:15;;;;;;;6.30;1.70;;;17.00;99.90;;;;;;5023159;28;20232;-70
2021/09/30 12:53:48;;;;;;;7.43;1.63;;;16.90;99.90;;;;;;5015636;28;20301;-69
2021/09/30 12:56:18;;;;;;;4.63;1.60;;;16.80;99.90;;;;;;5017545;28;20626;-70
2021/09/30 12:58:48;;;;;;;6.70;1.50;;;16.70;99.90;;;;;;5021173;28;20240;-71
2021/09/30 13:01:30;;;;;;;8.40;1.77;;;16.70;99.90;;;;;;5021722;28;20580;-71
2021/09/30 13:04:12;;;;;;;8.03;1.73;;;16.80;99.90;;;;;;5021442;28;20291;-70
2021/09/30 13:06:54;;;;;;;7.00;2.27;;;16.80;99.90;;;;;;5020556;28;20236;-71
2021/09/30 13:09:24;;;;;;;6.47;1.73;;;16.90;99.90;;;;;;5023757;28;20232;-71
2021/09/30 13:11:55;;;;;;;4.77;1.70;;;16.90;99.90;;;;;;5021672;28;20769;-70
2021/09/30 13:14:35;;;;;;;5.87;1.53;;;17.00;99.90;;;;;;5019875;28;20290;-71
2021/09/30 13:17:15;;;;;;;5.97;1.70;;;17.00;99.90;;;;;;5019033;28;20252;-71
2021/09/30 13:19:47;;;;;;;4.43;1.40;;;17.00;99.90;;;;;;5021402;28;20580;-69
2021/09/30 13:22:20;;;;;;;7.30;1.40;;;17.00;99.90;;;;;;5021076;28;20322;-70
2021/09/30 13:24:50;;;;;;;4.53;1.30;;;16.90;99.90;;;;;;5024895;28;20240;-70
2021/09/30 13:27:23;;;;;;;4.83;1.60;;;16.80;99.90;;;;;;5022933;28;20246;-70
2021/09/30 13:29:51;;;;;;;4.97;1.47;;;16.90;99.90;;;;;;5021396;28;20612;-71
2021/09/30 13:32:21;;;;;;;5.33;1.50;;;16.90;99.90;;;;;;5021918;28;20239;-70
2021/09/30 13:34:49;;;;;;;5.73;1.40;;;16.90;99.90;;;;;;5024637;28;20240;-71
2021/09/30 13:37:18;;;;;;;8.57;1.57;;;16.80;99.90;;;;;;5021864;28;20239;-71
2021/09/30 13:39:47;;;;;;;4.67;1.43;;;16.80;99.90;;;;;;5037739;28;20712;-71
2021/09/30 13:42:15;;;;;;;7.33;1.83;;;16.80;99.90;;;;;;5021012;28;20252;-70
2021/09/30 13:44:43;;;;;;;7.23;1.50;;;16.70;99.90;;;;;;5024421;28;20257;-70
2021/09/30 13:47:12;;;;;;;9.23;2.30;;;16.70;99.90;;;;;;5030812;28;20565;-71
2021/09/30 13:49:40;;;;;;;6.00;1.80;;;16.70;99.90;;;;;;5027047;28;20778;-70
2021/09/30 13:52:08;;;;;;;5.97;1.63;;;16.70;99.90;;;;;;5026454;28;20236;-70
2021/09/30 13:54:39;;;;;;;4.27;1.50;;;16.70;99.90;;;;;;5029556;28;20244;-70
2021/09/30 13:57:10;;;;;;;6.77;1.77;;;16.80;99.90;;;;;;5034982;28;20244;-71
2021/09/30 13:59:38;;;;;;;6.27;1.67;;;16.80;99.90;;;;;;5029352;28;20306;-71
2021/09/30 14:02:26;;;;;;;8.13;1.97;;;16.80;99.90;;;;;;5024096;28;20239;-70
2021/09/30 14:04:55;;;;;;;3.53;1.50;;;16.70;99.90;;;;;;5033218;28;20238;-71
2021/09/30 14:07:23;;;;;;;6.37;1.70;;;16.70;99.90;;;;;;5036820;28;20315;-71
2021/09/30 14:09:53;;;;;;;6.23;1.40;;;16.70;99.90;;;;;;5021901;28;20229;-70
2021/09/30 14:12:22;;;;;;;8.13;1.60;;;16.70;99.90;;;;;;5024585;28;20237;-70
2021/09/30 14:14:50;;;;;;;7.13;1.97;;;16.60;99.90;;;;;;5024170;28;20251;-71
2021/09/30 14:17:18;;;;;;;5.27;1.80;;;16.40;99.90;;;;;;5017716;28;20241;-71
2021/09/30 14:19:46;;;;;;;4.53;1.70;;;16.30;99.90;;;;;;5020267;28;20248;-71
2021/09/30 14:22:14;;;;;;;5.90;1.53;;;16.30;99.90;;;;;;5021243;28;20228;-70
2021/09/30 14:24:43;;;;;;;6.40;1.70;;;16.40;99.90;;;;;;5019306;28;20310;-71
2021/09/30 14:27:12;;;;;;;4.57;1.60;;;16.40;99.90;;;;;;5021888;28;20248;-71
2021/09/30 14:29:43;;;;;;;4.40;1.50;;;16.50;99.90;;;;;;5024190;28;20320;-71
2021/09/30 14:32:12;;;;;;;7.37;1.80;;;16.50;99.90;;;;;;5025065;28;20244;-71
2021/09/30 14:34:41;;;;;;;9.93;1.83;;;16.40;99.90;;;;;;5026244;28;20243;-70
2021/09/30 14:37:10;;;;;;;6.20;1.30;;;16.40;99.90;;;;;;5025183;28;20587;-71
2021/09/30 14:39:38;;;;;;;7.53;1.40;;;16.40;99.90;;;;;;5025010;28;20239;-71
2021/09/30 14:42:08;;;;;;;4.63;1.37;;;16.40;99.90;;;;;;5023068;28;20244;-71
2021/09/30 14:44:38;;;;;;;6.90;1.57;;;16.40;99.90;;;;;;5025358;28;20232;-71
2021/09/30 14:47:06;;;;;;;3.70;1.30;;;16.30;99.90;;;;;;5017280;28;20315;-72
2021/09/30 14:49:40;;;;;;;8.73;1.30;;;16.20;99.90;;;;;;5019690;28;20752;-71
2021/09/30 14:52:11;;;;;;;5.37;1.20;;;16.10;99.90;;;;;;5019023;28;20240;-71
2021/09/30 14:54:40;;;;;;;4.60;1.20;;;16.10;99.90;;;;;;5018161;28;20259;-71
2021/09/30 14:57:08;;;;;;;5.27;1.40;;;16.10;99.90;;;;;;5022051;28;20625;-71
2021/09/30 14:59:38;;;;;;;5.37;1.30;;;16.10;99.90;;;;;;5014544;28;20735;-72
2021/09/30 15:02:06;;;;;;;3.97;0.97;;;16.00;99.90;;;;;;5016853;28;20779;-71
2021/09/30 15:04:34;;;;;;;5.47;1.00;;;16.00;99.90;;;;;;5024976;28;20252;-70
2021/09/30 15:07:03;;;;;;;9.47;1.60;;;15.90;99.90;;;;;;5022994;28;20454;-71
2021/09/30 15:09:32;;;;;;;4.50;1.23;;;15.90;99.90;;;;;;5019813;28;20309;-72
2021/09/30 15:12:01;;;;;;;6.87;1.20;;;15.70;99.90;;;;;;5019363;28;20716;-72
2021/09/30 15:14:29;;;;;;;5.73;1.17;;;15.70;99.90;;;;;;5020047;28;20268;-71
2021/09/30 15:17:00;;;;;;;3.83;1.20;;;15.70;99.90;;;;;;5021811;28;20255;-71
2021/09/30 15:19:36;;;;;;;3.97;1.10;;;15.60;99.90;;;;;;5023130;28;20592;-71
2021/09/30 15:22:04;;;;;;;7.63;2.23;;;15.60;99.90;;;;;;5031171;28;20660;-72
2021/09/30 15:24:32;;;;;;;4.50;1.10;;;15.50;99.90;;;;;;5020008;28;20693;-71
2021/09/30 15:27:01;;;;;;;5.83;1.20;;;15.40;99.90;;;;;;5019784;28;20220;-71
2021/09/30 15:29:29;;;;;;;4.40;0.90;;;15.30;99.90;;;;;;5021132;28;20319;-72
2021/09/30 15:32:00;;;;;;;4.77;1.30;;;15.30;99.90;;;;;;5022382;28;20731;-72
2021/09/30 15:34:28;;;;;;;4.17;1.00;;;15.20;99.90;;;;;;5019064;28;20239;-71
2021/09/30 15:36:56;;;;;;;6.50;1.40;;;15.20;99.90;;;;;;5028961;28;20232;-71
2021/09/30 15:39:24;;;;;;;6.57;1.60;;;15.10;99.90;;;;;;5026225;28;20259;-70
2021/09/30 15:41:53;;;;;;;5.60;1.07;;;15.10;99.90;;;;;;5028851;28;20240;-73
2021/09/30 15:44:21;;;;;;;5.67;1.40;;;15.10;99.90;;;;;;5028828;28;20337;-71
2021/09/30 15:46:50;;;;;;;6.27;1.90;;;15.00;99.90;;;;;;5025386;28;20242;-73